This is the latest recevied weather packets stored in our database for station/object KD7YDD. If no packets are shown the sender has not sent any weather packets the latest 10 day(s).
| Time | Temp. | Humidity | Pressure | Rain* | Wind** | Luminosity | Snow |
|---|---|---|---|---|---|---|---|
| 1778012477 | 17.22° C | 76% | 1016 hPa | 0 mm | - | 269 W/m² | - |
| 1778002277 | 12.78° C | 91% | 1016 hPa | 0 mm | - | 137 W/m² | - |
| 1778001099 | 12.78° C | 92% | 1016 hPa | 0 mm | - | 77 W/m² | - |
| 1777998106 | 12.22° C | 92% | 1015.9 hPa | 0 mm | - | 90 W/m² | - |
| 1777995701 | 11.67° C | 92% | 1015.8 hPa | 0 mm | - | 61 W/m² | - |
| 1777989098 | 10.56° C | 92% | 1015.3 hPa | 0 mm | - | 0 W/m² | - |
| 1777984297 | 11.11° C | 92% | 1014.8 hPa | 0 mm | - | 0 W/m² | - |
| 1777978900 | 11.11° C | 92% | 1015 hPa | 0 mm | - | 0 W/m² | - |
| 1777975276 | 11.11° C | 92% | 1015 hPa | 0 mm | - | 0 W/m² | - |
| 1777974676 | 11.11° C | 92% | 1014.7 hPa | 0 mm | - | 0 W/m² | - |
| 1777972880 | 11.11° C | 92% | 1015.1 hPa | 0.51 mm | - | 0 W/m² | - |
| 1777969880 | 11.11° C | 92% | 1015.6 hPa | 0.51 mm | - | 0 W/m² | - |
| 1777963282 | 11.67° C | 91% | 1016 hPa | 0 mm | - | 0 W/m² | - |
| 1777962098 | 11.67° C | 91% | 1016.4 hPa | 0 mm | - | 0 W/m² | - |
| 1777960277 | 11.67° C | 91% | 1015.6 hPa | 0 mm | - | 0 W/m² | - |
| 1777956076 | 11.67° C | 91% | 1015.9 hPa | 0 mm | - | 0 W/m² | - |
| 1777947676 | 12.78° C | 90% | 1015.7 hPa | 0.25 mm | - | 0 W/m² | - |
| 1777943476 | 12.78° C | 90% | 1015.9 hPa | 0.25 mm | - | 12 W/m² | - |
| 1777940476 | 12.78° C | 89% | 1015.8 hPa | 0.76 mm | - | 34 W/m² | - |
| 1777938676 | 12.78° C | 89% | 1015.8 hPa | 1.27 mm | - | 21 W/m² | - |
| 1777936296 | 13.33° C | 88% | 1016 hPa | 2.03 mm | - | 26 W/m² | - |
| 1777932076 | 13.89° C | 82% | 1015.8 hPa | 0.25 mm | - | 21 W/m² | - |
| 1777924277 | 17.22° C | 71% | 1015.7 hPa | 0 mm | - | 86 W/m² | - |
| 1777915877 | 15° C | 75% | 1015.5 hPa | 0 mm | - | 114 W/m² | - |
| 1777911677 | 11.67° C | 92% | 1015.5 hPa | 0 mm | - | 49 W/m² | - |
* Rain latest hour (hover to see other rain measurements)
** Current wind speed in m/s (hover to see current wind gust speed)